Time;durP1;ratioP1;P1;durP2;ratioP2;P2;SDS_P1;SDS_P2;PMS_P1;PMS_P2;Temp;Humidity;BMP_temperature;BMP_pressure;BME280_temperature;BME280_humidity;BME280_pressure;Samples;Min_cycle;Max_cycle;Signal;HPM_P1;HPM_P2
2021/03/13 00:01:13;;;;;;;2.27;1.37;;;6.10;87.30;;;;;;5006121;28;20431;-59
2021/03/13 00:03:39;;;;;;;2.00;1.30;;;6.10;87.70;;;;;;5016878;28;20455;-59
2021/03/13 00:06:06;;;;;;;2.93;1.30;;;6.10;87.90;;;;;;5025371;28;20438;-58
2021/03/13 00:08:35;;;;;;;1.33;1.23;;;6.10;88.20;;;;;;5014356;28;20461;-58
2021/03/13 00:11:01;;;;;;;2.60;1.53;;;6.10;88.30;;;;;;5024738;28;20431;-59
2021/03/13 00:13:27;;;;;;;2.63;1.60;;;6.10;88.60;;;;;;5014207;28;20904;-59
2021/03/13 00:15:53;;;;;;;1.63;1.33;;;6.10;88.50;;;;;;5045395;23;20515;-56
2021/03/13 00:18:19;;;;;;;2.57;1.50;;;6.20;87.90;;;;;;4994374;28;20181;-58
2021/03/13 00:20:47;;;;;;;7.40;1.53;;;6.20;88.10;;;;;;4988784;28;20186;-55
2021/03/13 00:23:13;;;;;;;5.23;1.93;;;6.20;88.40;;;;;;4989307;28;20444;-57
2021/03/13 00:25:40;;;;;;;4.00;1.60;;;6.20;89.10;;;;;;4985922;28;20543;-54
2021/03/13 00:28:07;;;;;;;3.50;1.47;;;6.10;90.00;;;;;;4979211;28;20177;-55
2021/03/13 00:30:35;;;;;;;3.17;1.30;;;6.10;90.60;;;;;;4977050;28;20478;-54
2021/03/13 00:33:12;;;;;;;1.80;1.17;;;6.10;90.80;;;;;;4989970;28;20435;-55
2021/03/13 00:35:39;;;;;;;1.43;1.27;;;6.00;90.90;;;;;;4965936;28;20496;-54
2021/03/13 00:38:05;;;;;;;3.27;1.40;;;6.10;91.10;;;;;;4975893;28;20930;-55
2021/03/13 00:40:33;;;;;;;3.10;1.23;;;6.00;91.30;;;;;;4979025;28;20761;-55
2021/03/13 00:43:00;;;;;;;3.73;1.30;;;6.00;91.30;;;;;;4989193;28;20975;-55
2021/03/13 00:45:27;;;;;;;1.50;1.20;;;6.00;91.40;;;;;;4974335;28;20456;-56
2021/03/13 00:47:53;;;;;;;2.60;1.30;;;6.00;91.60;;;;;;4981690;28;20960;-55
2021/03/13 00:50:21;;;;;;;2.50;1.40;;;5.90;91.50;;;;;;4975999;28;20476;-57
2021/03/13 00:52:47;;;;;;;2.17;1.30;;;5.90;91.60;;;;;;4988324;28;20203;-56
2021/03/13 00:55:14;;;;;;;1.17;1.07;;;5.90;91.70;;;;;;4983196;28;20474;-58
2021/03/13 00:57:40;;;;;;;1.77;1.10;;;5.80;91.70;;;;;;4985018;28;20212;-55
2021/03/13 01:00:11;;;;;;;2.77;1.27;;;5.80;91.80;;;;;;4984452;28;20456;-56
2021/03/13 01:02:37;;;;;;;1.53;1.37;;;5.80;91.90;;;;;;4974596;28;20434;-53
2021/03/13 01:05:04;;;;;;;3.00;1.10;;;5.80;91.90;;;;;;4983304;28;20820;-57
2021/03/13 01:07:30;;;;;;;2.83;1.20;;;5.70;91.90;;;;;;4977845;28;20182;-55
2021/03/13 01:09:56;;;;;;;4.93;1.70;;;5.70;92.00;;;;;;4971744;28;20529;-55
2021/03/13 01:12:22;;;;;;;3.40;1.43;;;5.70;92.10;;;;;;4985909;28;20440;-56
2021/03/13 01:14:47;;;;;;;1.30;1.20;;;5.70;92.20;;;;;;4978359;28;20260;-55
2021/03/13 01:17:13;;;;;;;1.10;1.00;;;5.70;92.20;;;;;;4980280;28;20641;-55
2021/03/13 01:19:38;;;;;;;4.53;1.40;;;5.70;92.20;;;;;;4991290;28;20922;-55
2021/03/13 01:22:04;;;;;;;6.93;1.30;;;5.80;92.20;;;;;;4973426;28;20185;-57
2021/03/13 01:24:30;;;;;;;3.00;1.40;;;5.80;92.10;;;;;;4960021;28;20225;-55
2021/03/13 01:26:56;;;;;;;2.50;1.17;;;5.80;92.20;;;;;;4983996;28;20200;-54
2021/03/13 01:29:21;;;;;;;3.23;1.27;;;5.80;92.20;;;;;;4983107;28;20205;-57
2021/03/13 01:31:47;;;;;;;1.90;1.53;;;5.80;92.60;;;;;;4979496;28;20658;-56
2021/03/13 01:34:14;;;;;;;3.33;1.70;;;5.80;92.90;;;;;;4960504;28;20467;-56
2021/03/13 01:36:40;;;;;;;2.67;1.40;;;5.80;93.20;;;;;;4980051;28;20460;-55
2021/03/13 01:39:06;;;;;;;2.70;1.60;;;5.80;93.40;;;;;;4957422;28;20193;-57
2021/03/13 01:41:32;;;;;;;2.37;1.50;;;5.80;93.60;;;;;;4971575;28;20475;-57
2021/03/13 01:43:57;;;;;;;2.57;1.23;;;5.80;93.80;;;;;;4973070;28;20252;-58
2021/03/13 01:46:23;;;;;;;4.57;1.47;;;5.80;94.00;;;;;;4981591;28;20456;-55
2021/03/13 01:48:51;;;;;;;6.10;1.33;;;5.80;94.10;;;;;;4977391;28;20188;-56
2021/03/13 01:51:17;;;;;;;4.70;1.90;;;5.80;94.10;;;;;;4977924;28;20204;-56
2021/03/13 01:53:47;;;;;;;3.70;1.40;;;5.80;94.30;;;;;;4964213;28;20470;-58
2021/03/13 01:56:15;;;;;;;2.93;1.87;;;5.80;94.50;;;;;;4971481;28;20491;-56
2021/03/13 01:58:41;;;;;;;1.63;1.10;;;5.80;94.50;;;;;;4977144;28;20436;-56
2021/03/13 02:01:07;;;;;;;2.63;1.20;;;5.70;94.60;;;;;;4980262;28;20433;-56
2021/03/13 02:03:37;;;;;;;3.70;1.47;;;5.70;94.70;;;;;;4982023;28;20288;-54
2021/03/13 02:06:03;;;;;;;2.77;1.30;;;5.60;94.70;;;;;;4980233;28;20907;-56
2021/03/13 02:08:59;;;;;;;3.83;1.27;;;5.60;94.80;;;;;;4966786;28;20523;-55
2021/03/13 02:11:39;;;;;;;1.60;1.17;;;5.60;94.90;;;;;;4982494;28;21065;-57
2021/03/13 02:14:30;;;;;;;2.87;1.53;;;5.60;95.10;;;;;;4986568;28;21030;-55
2021/03/13 02:17:32;;;;;;;3.13;1.40;;;5.60;95.40;;;;;;4968486;28;20533;-56
2021/03/13 02:20:14;;;;;;;2.20;1.30;;;5.60;96.00;;;;;;4973933;28;20532;-53
2021/03/13 02:22:42;;;;;;;1.83;1.30;;;5.60;96.50;;;;;;4975182;28;20865;-54
2021/03/13 02:25:41;;;;;;;2.60;1.77;;;5.50;96.70;;;;;;4972417;28;20545;-55
2021/03/13 02:28:36;;;;;;;7.50;1.40;;;5.50;97.00;;;;;;4974689;28;20468;-56
2021/03/13 02:31:02;;;;;;;2.40;1.47;;;5.50;97.20;;;;;;4973239;28;20934;-56
2021/03/13 02:33:37;;;;;;;1.90;1.20;;;5.50;97.30;;;;;;4967650;28;20488;-56
2021/03/13 02:36:08;;;;;;;2.00;1.30;;;5.50;97.50;;;;;;4986117;28;20487;-56
2021/03/13 02:38:49;;;;;;;2.87;1.67;;;5.40;97.50;;;;;;4975845;28;20441;-56
2021/03/13 02:41:21;;;;;;;3.50;1.47;;;5.40;97.50;;;;;;4980409;28;20439;-56
2021/03/13 02:43:58;;;;;;;2.20;1.47;;;5.40;97.70;;;;;;4969469;28;20491;-56
2021/03/13 02:46:27;;;;;;;1.77;1.43;;;5.40;97.60;;;;;;4979194;28;20463;-56
2021/03/13 02:48:54;;;;;;;2.57;1.50;;;5.30;97.50;;;;;;4971760;28;20859;-56
2021/03/13 02:51:24;;;;;;;1.60;1.50;;;5.30;97.50;;;;;;4972770;28;20478;-57
2021/03/13 02:53:51;;;;;;;1.30;1.20;;;5.30;97.50;;;;;;4971480;28;20451;-56
2021/03/13 02:56:18;;;;;;;2.13;1.13;;;5.30;97.50;;;;;;4979493;28;20461;-56
2021/03/13 02:58:49;;;;;;;4.23;1.40;;;5.30;97.50;;;;;;4985520;28;20472;-56
2021/03/13 03:01:16;;;;;;;1.93;1.37;;;5.30;97.40;;;;;;4984159;28;20846;-56
2021/03/13 03:03:42;;;;;;;3.33;1.40;;;5.20;97.30;;;;;;4965440;28;20471;-57
2021/03/13 03:06:09;;;;;;;5.83;1.90;;;5.20;97.10;;;;;;4972898;28;20444;-56
2021/03/13 03:08:38;;;;;;;3.00;1.30;;;5.30;97.10;;;;;;4972898;28;20511;-57
2021/03/13 03:11:05;;;;;;;3.20;1.57;;;5.30;96.90;;;;;;4974149;28;20448;-56
2021/03/13 03:13:31;;;;;;;6.23;1.47;;;5.30;96.70;;;;;;4973988;28;20494;-54
2021/03/13 03:16:02;;;;;;;2.60;1.43;;;5.30;96.90;;;;;;4975726;28;20499;-55
2021/03/13 03:18:28;;;;;;;1.53;1.37;;;5.30;96.40;;;;;;4979783;28;20440;-56
2021/03/13 03:20:55;;;;;;;3.53;1.53;;;5.30;96.20;;;;;;4985956;28;20539;-57
2021/03/13 03:23:21;;;;;;;2.10;1.20;;;5.40;96.10;;;;;;4975643;28;20487;-55
2021/03/13 03:25:53;;;;;;;3.60;1.73;;;5.30;95.90;;;;;;4992306;28;20451;-55
2021/03/13 03:28:20;;;;;;;1.47;1.17;;;5.40;95.90;;;;;;4981496;28;20468;-57
2021/03/13 03:30:50;;;;;;;3.70;1.60;;;5.40;95.60;;;;;;4970418;28;20438;-58
2021/03/13 03:33:16;;;;;;;3.33;1.80;;;5.40;95.50;;;;;;4973775;28;20483;-57
2021/03/13 03:35:42;;;;;;;2.90;1.30;;;5.40;95.50;;;;;;4972374;28;20457;-58
2021/03/13 03:38:09;;;;;;;1.50;1.40;;;5.50;95.50;;;;;;4969587;28;20212;-55
2021/03/13 03:40:35;;;;;;;2.47;1.50;;;5.50;95.60;;;;;;4981432;28;20432;-55
2021/03/13 03:43:31;;;;;;;1.83;1.27;;;5.50;95.80;;;;;;4972297;28;21002;-55
2021/03/13 03:45:59;;;;;;;3.53;1.40;;;5.50;96.00;;;;;;4979333;28;20483;-55
2021/03/13 03:48:25;;;;;;;1.50;1.30;;;5.50;96.40;;;;;;4970756;28;20448;-55
2021/03/13 03:50:51;;;;;;;2.50;1.17;;;5.40;97.00;;;;;;4983063;28;20437;-56
2021/03/13 03:53:24;;;;;;;4.47;1.90;;;5.40;97.50;;;;;;4969579;28;20467;-56
2021/03/13 03:55:52;;;;;;;1.40;1.30;;;5.30;97.70;;;;;;4975528;28;21126;-55
2021/03/13 03:58:39;;;;;;;0.93;0.93;;;5.30;98.00;;;;;;4975726;28;21330;-57
2021/03/13 04:01:07;;;;;;;3.13;1.40;;;5.30;98.10;;;;;;4985670;28;20442;-56
2021/03/13 04:03:36;;;;;;;2.93;1.40;;;5.30;98.20;;;;;;4980149;28;20563;-56
2021/03/13 04:06:02;;;;;;;1.57;1.10;;;5.20;98.30;;;;;;4989286;28;20527;-55
2021/03/13 04:08:30;;;;;;;4.40;1.27;;;5.20;98.40;;;;;;4984436;28;20440;-55
2021/03/13 04:10:57;;;;;;;1.10;1.10;;;5.20;98.40;;;;;;4984315;28;20980;-56
2021/03/13 04:13:23;;;;;;;2.97;1.40;;;5.10;98.40;;;;;;4975959;28;20447;-57
2021/03/13 04:15:49;;;;;;;3.00;1.30;;;5.10;98.40;;;;;;4990628;28;20470;-57
2021/03/13 04:18:17;;;;;;;3.10;1.40;;;5.20;98.40;;;;;;4961115;28;20912;-55
2021/03/13 04:20:47;;;;;;;3.80;1.20;;;5.20;98.40;;;;;;4987147;28;20427;-57
2021/03/13 04:23:17;;;;;;;6.93;1.10;;;5.10;98.20;;;;;;4982832;28;20646;-55
2021/03/13 04:25:43;;;;;;;1.63;1.40;;;5.10;98.20;;;;;;4983541;28;20460;-57
2021/03/13 04:28:09;;;;;;;2.40;1.20;;;5.10;98.40;;;;;;4980404;28;20519;-56
2021/03/13 04:30:35;;;;;;;1.40;1.23;;;5.10;98.40;;;;;;4964336;28;20564;-54
2021/03/13 04:33:03;;;;;;;1.20;1.10;;;5.10;98.40;;;;;;4954785;28;20803;-57
2021/03/13 04:35:30;;;;;;;1.57;1.30;;;5.10;98.40;;;;;;4978375;28;20460;-55
2021/03/13 04:37:57;;;;;;;4.47;1.43;;;5.10;98.20;;;;;;4986699;28;20493;-55
2021/03/13 04:40:23;;;;;;;2.07;1.10;;;5.10;98.20;;;;;;4980616;28;20478;-54
2021/03/13 04:42:50;;;;;;;3.00;1.20;;;5.10;98.10;;;;;;4978604;28;20469;-54
2021/03/13 04:45:17;;;;;;;1.20;1.10;;;5.20;97.90;;;;;;4985215;28;20468;-55
2021/03/13 04:47:50;;;;;;;1.87;1.20;;;5.20;97.70;;;;;;4981721;28;20436;-57
2021/03/13 04:50:19;;;;;;;1.20;1.10;;;5.20;97.60;;;;;;4961965;28;20468;-55
2021/03/13 04:52:44;;;;;;;1.47;1.30;;;5.20;97.30;;;;;;4998201;28;20487;-54
2021/03/13 04:55:10;;;;;;;1.30;1.20;;;5.20;97.30;;;;;;4979120;28;20457;-54
2021/03/13 04:57:36;;;;;;;1.57;1.10;;;5.20;97.30;;;;;;4972753;28;20224;-54
2021/03/13 05:00:08;;;;;;;2.20;1.20;;;5.30;97.00;;;;;;4975834;28;20622;-55
2021/03/13 05:02:34;;;;;;;1.43;1.00;;;5.20;96.90;;;;;;4972492;28;20331;-57
2021/03/13 05:05:03;;;;;;;5.70;1.33;;;5.30;96.80;;;;;;4965998;28;20574;-55
2021/03/13 05:07:28;;;;;;;1.10;1.03;;;5.20;96.40;;;;;;4981322;28;20590;-55
2021/03/13 05:09:54;;;;;;;2.40;1.33;;;5.30;96.20;;;;;;4977804;28;20540;-54
2021/03/13 05:12:20;;;;;;;1.23;1.10;;;5.30;96.10;;;;;;4972300;28;20721;-54
2021/03/13 05:14:47;;;;;;;2.13;1.10;;;5.30;95.70;;;;;;4978028;28;20437;-53
2021/03/13 05:17:13;;;;;;;3.00;2.33;;;5.30;95.70;;;;;;4983395;28;20653;-56
2021/03/13 05:19:39;;;;;;;2.93;1.40;;;5.40;95.30;;;;;;4990546;28;20933;-55
2021/03/13 05:22:04;;;;;;;1.57;1.10;;;5.40;95.20;;;;;;4971322;28;20452;-55
2021/03/13 05:24:30;;;;;;;3.07;1.57;;;5.50;94.60;;;;;;4982479;28;20472;-56
2021/03/13 05:26:56;;;;;;;1.97;1.30;;;5.50;94.70;;;;;;4980073;28;20224;-56
2021/03/13 05:29:22;;;;;;;5.00;1.40;;;5.50;94.50;;;;;;4976525;28;20445;-56
2021/03/13 05:31:48;;;;;;;3.80;1.33;;;5.50;94.20;;;;;;4974260;28;20828;-55
2021/03/13 05:34:13;;;;;;;2.20;1.00;;;5.50;94.20;;;;;;4972318;28;20661;-55
2021/03/13 05:36:39;;;;;;;2.17;1.77;;;5.50;94.30;;;;;;4971748;28;20731;-55
2021/03/13 05:39:05;;;;;;;3.63;1.60;;;5.50;94.40;;;;;;4982718;28;20188;-55
2021/03/13 05:41:32;;;;;;;1.33;1.20;;;5.50;94.30;;;;;;4977863;28;20187;-57
2021/03/13 05:44:03;;;;;;;2.13;1.20;;;5.50;94.10;;;;;;4978618;28;20211;-56
2021/03/13 05:46:35;;;;;;;3.40;1.30;;;5.50;93.60;;;;;;4985783;28;20463;-55
2021/03/13 05:49:07;;;;;;;3.63;1.20;;;5.50;93.20;;;;;;4988555;28;20440;-55
2021/03/13 05:51:47;;;;;;;3.60;1.40;;;5.50;93.30;;;;;;4982211;28;20444;-55
2021/03/13 05:54:14;;;;;;;1.20;1.00;;;5.50;92.80;;;;;;4987599;28;20415;-53
2021/03/13 05:56:41;;;;;;;1.07;1.07;;;5.50;92.40;;;;;;4982062;28;20515;-54
2021/03/13 05:59:07;;;;;;;3.57;1.27;;;5.50;92.50;;;;;;4984096;28;20506;-53
2021/03/13 06:01:33;;;;;;;4.47;1.80;;;5.60;92.10;;;;;;4980464;28;20443;-54
2021/03/13 06:03:59;;;;;;;5.63;1.50;;;5.60;92.00;;;;;;4977150;28;20898;-55
2021/03/13 06:06:25;;;;;;;2.10;0.93;;;5.60;91.90;;;;;;4979431;28;20957;-57
2021/03/13 06:08:53;;;;;;;1.23;0.97;;;5.60;91.80;;;;;;4974730;28;20669;-55
2021/03/13 06:11:20;;;;;;;4.83;1.30;;;5.60;91.50;;;;;;4982510;28;20463;-54
2021/03/13 06:13:47;;;;;;;3.10;1.20;;;5.60;91.60;;;;;;4980426;28;20446;-55
2021/03/13 06:16:13;;;;;;;1.27;1.13;;;5.60;91.40;;;;;;4996629;22;20522;-57
2021/03/13 06:18:48;;;;;;;1.00;1.00;;;5.60;91.10;;;;;;4952625;28;20438;-59
2021/03/13 06:21:22;;;;;;;6.40;1.20;;;5.60;91.10;;;;;;4954905;28;20717;-57
2021/03/13 06:23:48;;;;;;;1.23;1.13;;;5.70;90.60;;;;;;4970588;28;20458;-57
2021/03/13 06:26:13;;;;;;;5.87;1.40;;;5.70;90.00;;;;;;4959724;28;20460;-61
2021/03/13 06:28:39;;;;;;;1.53;1.10;;;5.70;89.10;;;;;;4960729;28;20178;-59
2021/03/13 06:31:07;;;;;;;4.63;1.30;;;5.70;89.40;;;;;;4948984;28;20175;-62
2021/03/13 06:33:34;;;;;;;4.07;1.20;;;5.70;89.40;;;;;;4961880;28;20263;-58
2021/03/13 06:36:05;;;;;;;4.43;1.33;;;5.70;88.80;;;;;;4957486;28;21014;-59
2021/03/13 06:38:38;;;;;;;2.60;1.30;;;5.80;87.90;;;;;;4953485;28;20469;-56
2021/03/13 06:41:17;;;;;;;2.00;1.30;;;5.80;86.70;;;;;;4954881;28;21009;-59
2021/03/13 06:43:44;;;;;;;5.10;1.30;;;5.80;85.80;;;;;;4949643;28;20460;-59
2021/03/13 06:46:14;;;;;;;3.73;1.40;;;5.80;86.30;;;;;;4942718;28;20453;-61
2021/03/13 06:48:51;;;;;;;1.80;1.50;;;5.80;86.10;;;;;;4940507;28;20828;-59
2021/03/13 06:51:22;;;;;;;4.33;1.30;;;5.90;84.30;;;;;;4960171;28;20461;-58
2021/03/13 06:54:13;;;;;;;2.93;2.00;;;5.90;84.10;;;;;;4956210;28;20540;-59
2021/03/13 06:56:43;;;;;;;1.53;1.00;;;5.90;84.10;;;;;;4961977;28;22248;-58
2021/03/13 06:59:19;;;;;;;1.20;1.10;;;6.00;83.20;;;;;;4945563;28;20521;-59
2021/03/13 07:01:45;;;;;;;5.73;1.50;;;6.00;82.20;;;;;;4965463;28;20445;-57
2021/03/13 07:04:26;;;;;;;4.03;3.10;;;6.00;82.30;;;;;;4941827;28;20484;-58
2021/03/13 07:06:52;;;;;;;2.43;1.10;;;6.00;82.70;;;;;;4934751;28;20214;-59
2021/03/13 07:09:44;;;;;;;4.07;1.50;;;6.00;82.50;;;;;;4940464;28;20445;-59
2021/03/13 07:12:34;;;;;;;2.53;1.10;;;6.00;82.70;;;;;;4961612;28;20229;-59
2021/03/13 07:15:21;;;;;;;1.53;1.07;;;6.00;81.00;;;;;;4937688;28;21066;-59
2021/03/13 07:18:00;;;;;;;3.47;1.63;;;6.00;81.30;;;;;;4943168;28;20950;-58
2021/03/13 07:20:27;;;;;;;1.53;1.10;;;6.00;82.30;;;;;;4957890;28;20772;-58
2021/03/13 07:22:55;;;;;;;3.67;1.73;;;6.00;81.70;;;;;;4960737;28;21012;-60
2021/03/13 07:25:23;;;;;;;2.20;1.30;;;6.00;80.80;;;;;;4955057;28;20487;-59
2021/03/13 07:27:55;;;;;;;4.23;1.50;;;6.10;80.80;;;;;;4958967;28;20467;-58
2021/03/13 07:30:22;;;;;;;4.20;1.60;;;6.10;80.50;;;;;;4952181;28;20520;-61
2021/03/13 07:33:10;;;;;;;2.00;1.37;;;6.10;80.50;;;;;;4948521;28;20953;-59
2021/03/13 07:35:38;;;;;;;2.47;1.40;;;6.10;79.60;;;;;;4952075;28;20515;-58
2021/03/13 07:38:07;;;;;;;2.57;1.40;;;6.10;79.10;;;;;;4953090;28;20941;-57
2021/03/13 07:40:39;;;;;;;3.70;1.30;;;6.10;77.90;;;;;;4947038;28;20424;-59
2021/03/13 07:43:07;;;;;;;4.23;1.57;;;6.20;78.30;;;;;;4949910;28;20442;-59
2021/03/13 07:45:33;;;;;;;3.10;1.60;;;6.20;78.60;;;;;;4950661;28;20425;-57
2021/03/13 07:47:59;;;;;;;5.57;1.50;;;6.20;77.20;;;;;;4936323;28;21285;-59
2021/03/13 07:50:25;;;;;;;2.83;1.47;;;6.20;77.10;;;;;;4948025;28;20190;-60
2021/03/13 07:52:55;;;;;;;1.97;1.73;;;6.30;76.10;;;;;;4953776;28;20434;-59
2021/03/13 07:55:24;;;;;;;5.10;2.50;;;6.30;76.00;;;;;;4949409;28;20430;-59
2021/03/13 07:57:51;;;;;;;1.97;1.40;;;6.30;76.10;;;;;;4961649;28;20432;-59
2021/03/13 08:00:17;;;;;;;10.20;1.73;;;6.40;75.10;;;;;;4940821;28;20819;-58
2021/03/13 08:02:45;;;;;;;1.70;1.30;;;6.40;75.80;;;;;;4939932;28;20783;-60
2021/03/13 08:05:17;;;;;;;1.53;1.20;;;6.50;75.00;;;;;;4958216;28;20514;-59
2021/03/13 08:08:06;;;;;;;2.30;1.10;;;6.50;74.60;;;;;;4959891;28;20464;-58
2021/03/13 08:10:52;;;;;;;4.87;1.20;;;6.60;73.20;;;;;;4963452;28;20433;-60
2021/03/13 08:13:27;;;;;;;4.13;1.50;;;6.60;72.20;;;;;;4956781;28;20464;-59
2021/03/13 08:16:06;;;;;;;3.30;1.60;;;6.70;71.20;;;;;;4952862;28;20452;-62
2021/03/13 08:18:42;;;;;;;2.50;1.43;;;6.70;70.60;;;;;;4957711;28;20433;-59
2021/03/13 08:21:20;;;;;;;2.00;1.40;;;6.80;69.10;;;;;;4960770;28;20433;-60
2021/03/13 08:23:55;;;;;;;1.70;1.20;;;6.80;68.00;;;;;;4957614;28;20474;-60
2021/03/13 08:26:23;;;;;;;7.97;1.50;;;6.80;69.00;;;;;;4953468;28;20448;-59
2021/03/13 08:28:50;;;;;;;3.93;1.20;;;6.80;67.60;;;;;;4971940;28;20432;-60
2021/03/13 08:31:25;;;;;;;2.60;1.20;;;6.80;68.20;;;;;;4978091;28;20429;-59
2021/03/13 08:33:57;;;;;;;3.30;1.60;;;6.80;67.50;;;;;;4971076;28;20430;-62
2021/03/13 08:36:24;;;;;;;1.17;0.90;;;6.90;68.40;;;;;;4962119;28;20457;-62
2021/03/13 08:39:01;;;;;;;1.27;1.10;;;6.90;67.70;;;;;;4975925;28;20466;-63
2021/03/13 08:41:45;;;;;;;1.13;1.03;;;7.00;66.50;;;;;;4949583;28;20457;-62
2021/03/13 08:44:16;;;;;;;1.70;1.43;;;7.20;65.70;;;;;;4943812;28;20879;-59
2021/03/13 08:46:44;;;;;;;6.00;1.40;;;7.20;64.50;;;;;;4958043;28;20481;-59
2021/03/13 08:49:11;;;;;;;2.10;0.90;;;7.40;64.80;;;;;;4956540;28;20441;-55
2021/03/13 08:51:37;;;;;;;1.73;1.23;;;7.50;62.30;;;;;;4959597;28;20434;-59
2021/03/13 08:54:03;;;;;;;6.27;1.50;;;7.50;61.50;;;;;;4958108;28;20848;-60
2021/03/13 08:56:43;;;;;;;2.30;1.67;;;7.60;61.10;;;;;;4953458;28;20207;-61
2021/03/13 08:59:17;;;;;;;1.40;1.30;;;7.60;60.10;;;;;;4954248;29;20417;-61
2021/03/13 09:01:59;;;;;;;8.10;1.57;;;7.60;58.30;;;;;;4945301;28;20957;-60
2021/03/13 09:04:25;;;;;;;1.50;1.40;;;7.60;58.30;;;;;;4943989;28;20468;-59
2021/03/13 09:06:50;;;;;;;1.07;1.07;;;7.70;58.20;;;;;;4938409;28;20810;-59
2021/03/13 09:09:17;;;;;;;2.03;1.10;;;7.70;57.40;;;;;;4948385;28;20182;-58
2021/03/13 09:11:58;;;;;;;2.63;1.20;;;7.70;56.90;;;;;;4947455;28;20186;-60
2021/03/13 09:14:25;;;;;;;2.30;1.47;;;7.70;56.90;;;;;;4954493;28;20433;-59
2021/03/13 09:16:52;;;;;;;1.73;1.20;;;7.70;57.20;;;;;;4940036;28;20488;-60
2021/03/13 09:19:17;;;;;;;2.93;1.30;;;7.70;57.20;;;;;;4950245;28;20785;-59
2021/03/13 09:21:51;;;;;;;2.50;1.10;;;7.80;57.00;;;;;;4941223;28;20434;-61
2021/03/13 09:24:19;;;;;;;2.40;1.10;;;7.90;56.30;;;;;;4959055;28;20233;-59
2021/03/13 09:26:50;;;;;;;1.80;1.13;;;7.90;55.60;;;;;;4945816;28;20462;-61
2021/03/13 09:29:24;;;;;;;1.53;1.10;;;8.00;55.70;;;;;;4959590;28;20461;-59
2021/03/13 09:31:57;;;;;;;6.50;1.60;;;8.10;55.00;;;;;;4953492;28;20444;-58
2021/03/13 09:34:23;;;;;;;3.73;1.43;;;8.30;55.30;;;;;;4942229;28;20476;-59
2021/03/13 09:36:49;;;;;;;1.57;1.20;;;8.30;54.10;;;;;;4943323;28;20453;-59
2021/03/13 09:39:24;;;;;;;5.33;1.30;;;8.40;54.20;;;;;;4967931;28;20436;-60
2021/03/13 09:42:12;;;;;;;3.37;1.00;;;8.40;53.60;;;;;;4948819;28;20437;-59
2021/03/13 09:44:48;;;;;;;1.20;1.13;;;8.50;53.00;;;;;;4951509;28;20475;-61
2021/03/13 09:47:18;;;;;;;1.53;1.00;;;8.50;53.20;;;;;;4966571;28;20531;-61
2021/03/13 09:49:46;;;;;;;2.03;1.23;;;8.60;52.50;;;;;;4950796;28;20438;-61
2021/03/13 09:52:13;;;;;;;2.63;1.13;;;8.70;52.20;;;;;;4954739;28;21077;-61
2021/03/13 09:54:39;;;;;;;1.60;1.10;;;8.80;51.60;;;;;;4938359;28;20469;-59
2021/03/13 09:57:11;;;;;;;1.47;1.10;;;8.80;51.10;;;;;;4966839;28;21226;-58
2021/03/13 09:59:37;;;;;;;1.73;1.10;;;8.80;51.30;;;;;;4951588;28;20417;-59
2021/03/13 10:02:02;;;;;;;1.20;1.10;;;8.80;51.00;;;;;;4943637;28;20453;-60
2021/03/13 10:04:30;;;;;;;3.50;1.23;;;8.90;50.60;;;;;;4952298;28;20477;-58
2021/03/13 10:06:56;;;;;;;2.57;1.13;;;8.90;50.20;;;;;;4940740;28;20705;-60
2021/03/13 10:09:24;;;;;;;1.57;1.13;;;8.90;50.40;;;;;;4959627;28;20420;-58
2021/03/13 10:11:50;;;;;;;5.60;1.60;;;8.90;50.80;;;;;;4941901;28;20918;-60
2021/03/13 10:14:21;;;;;;;3.97;1.30;;;8.90;50.20;;;;;;4949299;28;20528;-57
2021/03/13 10:17:08;;;;;;;5.57;1.13;;;9.00;50.30;;;;;;4934881;28;20864;-58
2021/03/13 10:19:35;;;;;;;1.33;1.00;;;9.00;49.90;;;;;;4935328;28;20572;-57
2021/03/13 10:22:14;;;;;;;2.70;1.00;;;9.00;49.70;;;;;;4957411;28;20510;-59
2021/03/13 10:24:54;;;;;;;8.43;1.10;;;9.00;49.70;;;;;;4959262;28;20460;-60
2021/03/13 10:27:28;;;;;;;8.73;1.40;;;9.00;49.50;;;;;;4943865;28;20492;-58
2021/03/13 10:30:00;;;;;;;3.23;1.23;;;9.00;49.50;;;;;;4948358;28;20430;-60
2021/03/13 10:32:31;;;;;;;7.30;1.70;;;9.00;49.50;;;;;;4949585;28;20882;-61
2021/03/13 10:35:19;;;;;;;2.20;1.00;;;9.00;49.50;;;;;;4959652;28;20868;-60
2021/03/13 10:37:48;;;;;;;2.70;1.17;;;9.00;49.50;;;;;;4956551;28;20450;-60
2021/03/13 10:40:35;;;;;;;4.50;1.17;;;9.10;49.40;;;;;;4954487;28;20426;-60
2021/03/13 10:43:17;;;;;;;0.90;0.90;;;9.10;49.30;;;;;;4946525;28;20843;-61
2021/03/13 10:46:05;;;;;;;1.37;1.00;;;9.00;49.40;;;;;;4933488;28;20449;-61
2021/03/13 10:48:32;;;;;;;2.50;0.97;;;9.00;49.50;;;;;;4954471;28;20449;-62
2021/03/13 10:50:58;;;;;;;2.13;1.30;;;9.00;49.60;;;;;;4940684;28;20437;-60
2021/03/13 10:53:35;;;;;;;1.03;0.90;;;9.00;49.70;;;;;;4950849;28;20450;-61
2021/03/13 10:56:06;;;;;;;2.10;1.07;;;9.00;49.70;;;;;;4954752;28;20484;-61
2021/03/13 10:58:37;;;;;;;2.20;1.00;;;9.10;50.00;;;;;;4941649;28;20450;-60
2021/03/13 11:01:07;;;;;;;1.53;1.30;;;9.10;49.70;;;;;;4952851;28;20445;-55
2021/03/13 11:03:33;;;;;;;6.43;1.00;;;9.00;49.70;;;;;;4937337;28;20549;-58
2021/03/13 11:05:59;;;;;;;2.97;1.30;;;9.10;49.80;;;;;;4935598;28;20461;-60
2021/03/13 11:08:26;;;;;;;3.90;1.10;;;9.10;49.80;;;;;;4967282;28;20432;-62
2021/03/13 11:10:53;;;;;;;1.43;1.03;;;9.20;49.30;;;;;;4951312;28;20433;-58
2021/03/13 11:13:20;;;;;;;1.70;0.90;;;9.20;49.30;;;;;;4944728;28;20438;-59
2021/03/13 11:15:47;;;;;;;1.37;1.27;;;9.20;49.30;;;;;;4959948;28;20594;-60
2021/03/13 11:18:13;;;;;;;1.10;0.90;;;9.30;49.10;;;;;;4930905;28;20434;-59
2021/03/13 11:20:40;;;;;;;1.10;1.00;;;9.30;49.00;;;;;;4934759;28;20433;-59
2021/03/13 11:23:06;;;;;;;1.10;1.00;;;9.30;48.60;;;;;;4953034;28;20420;-59
2021/03/13 11:25:32;;;;;;;1.57;1.00;;;9.30;48.70;;;;;;4949660;28;20460;-59
2021/03/13 11:27:58;;;;;;;2.40;1.20;;;9.30;48.80;;;;;;4942812;28;20430;-62
2021/03/13 11:30:24;;;;;;;1.37;1.20;;;9.30;48.70;;;;;;4944962;28;20619;-60
2021/03/13 11:32:50;;;;;;;5.33;1.37;;;9.20;48.70;;;;;;4936077;28;20884;-60
2021/03/13 11:35:19;;;;;;;1.97;1.37;;;9.30;48.80;;;;;;4934791;29;20462;-59
2021/03/13 11:37:49;;;;;;;6.30;1.07;;;9.30;48.80;;;;;;4936646;28;20524;-58
2021/03/13 11:40:16;;;;;;;2.93;1.03;;;9.30;48.50;;;;;;4952761;28;20786;-59
2021/03/13 11:42:42;;;;;;;2.60;0.90;;;9.30;48.00;;;;;;4941430;28;20434;-59
2021/03/13 11:45:10;;;;;;;1.23;0.90;;;9.40;48.00;;;;;;4934794;28;20903;-60
2021/03/13 11:47:36;;;;;;;1.47;0.90;;;9.30;47.90;;;;;;4941220;28;20469;-58
2021/03/13 11:50:06;;;;;;;5.20;1.17;;;9.40;47.90;;;;;;4952292;28;20425;-59
2021/03/13 11:52:32;;;;;;;4.03;1.30;;;9.40;47.60;;;;;;4948436;28;20430;-59
2021/03/13 11:54:57;;;;;;;4.90;0.97;;;9.40;47.60;;;;;;4939656;28;20497;-59
2021/03/13 11:57:23;;;;;;;2.10;1.00;;;9.40;47.90;;;;;;4939439;28;20702;-60
2021/03/13 11:59:49;;;;;;;1.23;1.00;;;9.50;47.60;;;;;;4936906;29;20652;-60
2021/03/13 12:02:16;;;;;;;2.60;1.23;;;9.50;47.90;;;;;;4935396;28;20248;-59
2021/03/13 12:04:42;;;;;;;2.40;1.07;;;9.50;48.50;;;;;;4944356;28;20819;-60
2021/03/13 12:07:09;;;;;;;2.93;1.30;;;9.50;48.80;;;;;;4952268;28;20469;-59
2021/03/13 12:09:35;;;;;;;6.00;1.20;;;9.50;48.80;;;;;;4935598;28;20438;-60
2021/03/13 12:12:04;;;;;;;1.13;1.03;;;9.50;48.90;;;;;;4947602;28;20437;-60
2021/03/13 12:14:30;;;;;;;3.27;1.30;;;9.50;49.30;;;;;;4947643;28;20532;-59
2021/03/13 12:16:56;;;;;;;4.30;1.33;;;9.50;49.50;;;;;;4966553;23;20642;-55
2021/03/13 12:19:22;;;;;;;2.53;1.10;;;9.40;50.20;;;;;;4986319;28;20436;-54
2021/03/13 12:21:49;;;;;;;1.00;0.90;;;9.30;51.00;;;;;;4993281;28;20181;-55
2021/03/13 12:24:16;;;;;;;2.20;1.27;;;9.20;51.60;;;;;;4972621;28;20467;-54
2021/03/13 12:26:41;;;;;;;1.53;1.17;;;9.20;51.80;;;;;;4986551;28;20968;-53
2021/03/13 12:29:07;;;;;;;1.97;1.77;;;9.10;52.50;;;;;;4968739;28;20440;-56
2021/03/13 12:31:33;;;;;;;2.53;1.43;;;9.10;52.80;;;;;;4971012;28;20276;-55
2021/03/13 12:33:58;;;;;;;2.27;1.60;;;9.10;53.10;;;;;;4990075;28;20680;-54
2021/03/13 12:36:24;;;;;;;5.33;1.43;;;9.10;53.00;;;;;;4975620;28;20217;-53
2021/03/13 12:38:50;;;;;;;1.20;1.10;;;9.00;53.20;;;;;;4992448;28;20177;-54
2021/03/13 12:41:16;;;;;;;6.43;1.20;;;9.00;53.50;;;;;;4968958;28;20193;-53
2021/03/13 12:43:41;;;;;;;2.30;0.90;;;8.90;53.70;;;;;;4974157;28;20514;-54
2021/03/13 12:46:14;;;;;;;2.50;1.10;;;8.80;54.10;;;;;;4989524;28;20635;-54
2021/03/13 12:48:40;;;;;;;5.90;1.40;;;8.70;54.80;;;;;;4972017;28;20661;-54
2021/03/13 12:51:06;;;;;;;5.83;1.33;;;8.60;55.40;;;;;;4979804;28;20503;-53
2021/03/13 12:53:32;;;;;;;1.50;0.83;;;8.60;55.20;;;;;;4972083;28;20445;-53
2021/03/13 12:55:58;;;;;;;1.23;1.10;;;8.60;54.80;;;;;;4972211;28;20527;-55
2021/03/13 12:58:23;;;;;;;1.00;1.00;;;8.60;55.00;;;;;;4989823;28;20324;-54
2021/03/13 13:00:50;;;;;;;1.40;1.30;;;8.60;54.80;;;;;;4973363;28;20970;-54
2021/03/13 13:03:16;;;;;;;2.73;1.30;;;8.50;55.10;;;;;;4970383;28;20267;-53
2021/03/13 13:05:42;;;;;;;4.20;1.23;;;8.50;55.50;;;;;;4964181;28;20932;-54
2021/03/13 13:08:08;;;;;;;3.17;1.20;;;8.50;55.90;;;;;;4975996;28;20251;-54
2021/03/13 13:10:34;;;;;;;1.77;1.27;;;8.50;55.90;;;;;;4990082;28;20222;-56